Time;durP1;ratioP1;P1;durP2;ratioP2;P2;SDS_P1;SDS_P2;PMS_P1;PMS_P2;Temp;Humidity;BMP_temperature;BMP_pressure;BME280_temperature;BME280_humidity;BME280_pressure;Samples;Min_cycle;Max_cycle;Signal;HPM_P1;HPM_P2
2021/11/09 00:00:15;;;;;;;8.93;4.97;;;3.20;99.90;;;;;;5055018;28;20049;-87
2021/11/09 00:02:44;;;;;;;7.25;5.40;;;3.30;99.90;;;;;;5037450;28;20049;-87
2021/11/09 00:05:15;;;;;;;12.20;4.85;;;3.30;99.90;;;;;;5037650;28;20040;-88
2021/11/09 00:08:07;;;;;;;8.52;5.28;;;3.30;99.90;;;;;;5037582;28;20087;-88
2021/11/09 00:10:30;;;;;;;7.70;5.30;;;3.40;99.90;;;;;;5054913;28;20045;-88
2021/11/09 00:13:00;;;;;;;11.90;5.40;;;3.40;99.90;;;;;;5037498;28;20044;-88
2021/11/09 00:15:30;;;;;;;8.65;5.07;;;3.50;99.90;;;;;;5054747;28;20241;-87
2021/11/09 00:18:00;;;;;;;8.05;4.30;;;3.40;99.90;;;;;;5037297;28;20084;-88
2021/11/09 00:20:30;;;;;;;12.75;4.35;;;3.40;99.90;;;;;;5054587;28;20099;-88
2021/11/09 00:22:58;;;;;;;9.95;4.88;;;3.30;99.90;;;;;;5054737;28;20095;-88
2021/11/09 00:25:26;;;;;;;8.65;5.03;;;3.20;99.90;;;;;;5037008;28;20481;-87
2021/11/09 00:27:53;;;;;;;11.13;4.57;;;3.00;99.90;;;;;;5037129;28;20413;-87
2021/11/09 00:30:22;;;;;;;8.70;5.03;;;3.00;99.90;;;;;;5036652;28;20054;-87
2021/11/09 00:32:49;;;;;;;8.68;4.30;;;2.90;99.90;;;;;;5037008;28;20053;-87
2021/11/09 00:35:20;;;;;;;7.05;4.93;;;3.00;99.90;;;;;;5054436;28;20456;-87
2021/11/09 00:37:47;;;;;;;8.57;5.22;;;3.00;99.90;;;;;;5037226;28;20497;-88
2021/11/09 00:40:17;;;;;;;9.70;5.30;;;3.10;99.90;;;;;;5036861;28;20045;-88
2021/11/09 00:42:44;;;;;;;9.57;6.65;;;3.20;99.90;;;;;;5036812;28;20412;-88
2021/11/09 00:45:13;;;;;;;10.93;5.32;;;3.30;99.90;;;;;;5036823;28;20470;-88
2021/11/09 00:47:42;;;;;;;9.77;5.78;;;3.40;99.90;;;;;;5036941;28;20053;-88
2021/11/09 00:50:11;;;;;;;12.60;6.53;;;3.50;99.90;;;;;;5036908;28;20049;-87
2021/11/09 00:52:38;;;;;;;13.95;5.30;;;3.50;99.90;;;;;;5036727;28;20103;-87
2021/11/09 00:55:06;;;;;;;8.77;5.78;;;3.60;99.90;;;;;;5035816;28;20524;-87
2021/11/09 00:57:34;;;;;;;8.50;5.30;;;3.70;99.90;;;;;;5054361;28;20448;-88
2021/11/09 01:00:02;;;;;;;9.70;4.85;;;3.70;99.90;;;;;;5054059;28;20067;-88
2021/11/09 01:02:29;;;;;;;9.02;4.97;;;3.80;99.90;;;;;;5037131;28;20049;-88
2021/11/09 01:04:56;;;;;;;6.45;5.03;;;3.80;99.90;;;;;;5036523;28;20076;-88
2021/11/09 01:07:23;;;;;;;8.82;4.85;;;3.90;99.90;;;;;;5036261;28;20056;-88
2021/11/09 01:09:50;;;;;;;10.52;5.15;;;4.00;99.90;;;;;;5054021;28;20106;-88
2021/11/09 01:12:17;;;;;;;9.07;5.00;;;4.00;99.90;;;;;;5036190;28;20045;-88
2021/11/09 01:14:44;;;;;;;8.80;4.70;;;4.00;99.90;;;;;;5036611;28;20053;-88
2021/11/09 01:17:11;;;;;;;10.90;4.65;;;4.10;99.90;;;;;;5036138;28;20111;-88
2021/11/09 01:19:38;;;;;;;5.45;4.88;;;4.10;99.90;;;;;;5053822;28;20045;-88
2021/11/09 01:22:06;;;;;;;8.80;5.13;;;4.10;99.90;;;;;;5053460;28;20110;-88
2021/11/09 01:24:33;;;;;;;8.57;4.50;;;4.10;99.90;;;;;;5035940;28;20098;-88
2021/11/09 01:27:00;;;;;;;8.88;5.45;;;4.10;99.90;;;;;;5036222;28;20431;-88
2021/11/09 01:29:28;;;;;;;13.13;4.57;;;4.10;99.90;;;;;;5036190;28;20400;-88
2021/11/09 01:31:55;;;;;;;8.15;4.50;;;4.10;99.90;;;;;;5036254;28;20478;-88
2021/11/09 01:34:22;;;;;;;11.63;5.03;;;4.10;99.90;;;;;;5035741;28;20049;-88
2021/11/09 01:36:49;;;;;;;6.57;4.35;;;4.10;99.90;;;;;;5036086;28;20461;-88
2021/11/09 01:39:16;;;;;;;6.55;4.40;;;4.10;99.90;;;;;;5035973;28;20094;-88
2021/11/09 01:41:44;;;;;;;5.70;4.28;;;4.10;99.90;;;;;;5035851;28;20045;-88
2021/11/09 01:44:12;;;;;;;6.90;4.57;;;4.00;99.90;;;;;;5035812;28;20045;-88
2021/11/09 01:46:39;;;;;;;9.52;4.63;;;4.10;99.90;;;;;;5035839;28;20056;-89
2021/11/09 01:49:08;;;;;;;7.50;4.28;;;4.00;99.90;;;;;;5035855;28;20049;-88
2021/11/09 01:51:35;;;;;;;6.80;4.40;;;4.00;99.90;;;;;;5036083;28;20053;-88
2021/11/09 01:54:04;;;;;;;9.32;5.10;;;4.00;99.90;;;;;;5035917;28;20444;-88
2021/11/09 01:56:33;;;;;;;7.68;4.65;;;4.00;99.90;;;;;;5035684;28;20076;-88
2021/11/09 01:59:00;;;;;;;11.95;5.35;;;3.90;99.90;;;;;;5035710;28;20045;-88
2021/11/09 02:01:28;;;;;;;9.27;4.88;;;3.80;99.90;;;;;;5035687;28;20049;-88
2021/11/09 02:04:00;;;;;;;9.20;5.28;;;3.80;99.90;;;;;;5035713;28;20053;-88
2021/11/09 02:06:27;;;;;;;9.65;5.00;;;3.80;99.90;;;;;;5035704;28;20045;-88
2021/11/09 02:08:59;;;;;;;10.57;5.22;;;3.80;99.90;;;;;;5036103;28;20081;-88
2021/11/09 02:11:26;;;;;;;9.00;5.00;;;3.80;99.90;;;;;;5053272;28;20049;-88
2021/11/09 02:13:53;;;;;;;6.45;4.85;;;3.80;99.90;;;;;;5035831;28;20080;-88
2021/11/09 02:16:20;;;;;;;10.20;5.25;;;3.80;99.90;;;;;;5035586;28;20049;-88
2021/11/09 02:18:47;;;;;;;9.88;5.40;;;3.90;99.90;;;;;;5035799;28;20075;-88
2021/11/09 02:21:14;;;;;;;8.82;5.50;;;3.90;99.90;;;;;;5035294;28;20139;-88
2021/11/09 02:23:43;;;;;;;6.10;5.07;;;3.90;99.90;;;;;;5052287;28;20045;-88
2021/11/09 02:26:17;;;;;;;8.38;5.32;;;3.90;99.90;;;;;;5035426;28;20079;-88
2021/11/09 02:28:45;;;;;;;9.85;5.70;;;4.00;99.90;;;;;;5052883;28;20060;-88
2021/11/09 02:31:12;;;;;;;10.13;5.50;;;4.10;99.90;;;;;;5035647;28;20255;-88
2021/11/09 02:33:39;;;;;;;11.45;5.50;;;4.20;99.90;;;;;;5035584;28;20052;-89
2021/11/09 02:36:06;;;;;;;10.95;5.60;;;4.20;99.90;;;;;;5052575;28;20107;-88
2021/11/09 02:38:33;;;;;;;5.90;4.78;;;4.30;99.90;;;;;;5052761;28;20106;-88
2021/11/09 02:41:00;;;;;;;9.88;5.32;;;4.30;99.90;;;;;;5034972;28;20049;-88
2021/11/09 02:43:28;;;;;;;7.95;4.90;;;4.40;99.90;;;;;;5034917;28;20049;-88
2021/11/09 02:46:26;;;;;;;8.57;5.10;;;4.40;99.90;;;;;;5035319;28;20048;-88
2021/11/09 02:49:06;;;;;;;9.30;5.43;;;4.40;99.90;;;;;;5052907;28;20107;-88
2021/11/09 02:54:20;;;;;;;6.55;4.32;;;4.30;99.90;;;;;;5052684;28;20057;-88
2021/11/09 02:56:56;;;;;;;9.43;4.57;;;4.30;99.90;;;;;;5035171;28;20045;-89
2021/11/09 03:07:56;;;;;;;9.07;4.45;;;4.20;99.90;;;;;;4980652;28;20046;-88
2021/11/09 03:10:38;;;;;;;7.22;4.47;;;4.30;99.90;;;;;;5034788;28;20048;-88
2021/11/09 03:13:05;;;;;;;11.30;5.28;;;4.20;99.90;;;;;;5052604;28;20132;-88
2021/11/09 03:15:34;;;;;;;11.77;5.65;;;4.30;99.90;;;;;;5035043;28;20107;-88
2021/11/09 03:18:05;;;;;;;9.45;5.10;;;4.20;99.90;;;;;;5052486;28;20060;-88
2021/11/09 03:20:40;;;;;;;12.10;5.70;;;4.30;99.90;;;;;;5055441;28;20057;-88
2021/11/09 03:45:33;;;;;;;12.15;5.28;;;4.20;99.90;;;;;;5055407;28;20049;-89
2021/11/09 03:48:10;;;;;;;10.50;6.35;;;4.20;99.90;;;;;;5055598;28;20053;-88
2021/11/09 03:50:39;;;;;;;9.43;5.80;;;4.20;99.90;;;;;;5038191;28;20055;-88
2021/11/09 03:53:16;;;;;;;10.00;6.13;;;4.10;99.90;;;;;;5037662;28;20047;-89
2021/11/09 03:58:31;;;;;;;9.02;5.90;;;4.10;99.90;;;;;;5055064;28;20486;-88
2021/11/09 04:01:02;;;;;;;10.80;5.50;;;4.10;99.90;;;;;;5055497;28;20049;-88
2021/11/09 04:03:47;;;;;;;7.80;4.72;;;4.10;99.90;;;;;;5037850;28;20057;-88
2021/11/09 04:08:58;;;;;;;8.37;4.80;;;4.20;99.90;;;;;;5055306;28;20144;-88
2021/11/09 04:11:38;;;;;;;8.50;5.75;;;4.20;99.90;;;;;;5055098;28;20299;-88
2021/11/09 04:14:32;;;;;;;12.02;5.50;;;4.20;99.90;;;;;;5055031;28;20041;-88
2021/11/09 04:17:08;;;;;;;6.63;5.25;;;4.10;99.90;;;;;;5054463;28;20049;-88
2021/11/09 04:19:54;;;;;;;8.40;5.40;;;4.20;99.90;;;;;;5037742;28;20095;-89
2021/11/09 04:31:09;;;;;;;10.63;4.75;;;4.20;99.90;;;;;;4993538;28;20442;-88
2021/11/09 04:34:08;;;;;;;11.45;5.63;;;4.30;99.90;;;;;;5051814;28;20052;-88
2021/11/09 04:48:23;;;;;;;13.27;5.93;;;4.30;99.90;;;;;;5054475;28;20049;-88
2021/11/09 05:11:46;;;;;;;10.38;6.00;;;4.20;99.90;;;;;;5054125;28;20096;-86
2021/11/09 05:14:14;;;;;;;10.95;6.50;;;4.10;99.90;;;;;;5053568;28;20045;-88
2021/11/09 05:16:42;;;;;;;9.70;6.35;;;4.00;99.90;;;;;;5036177;28;20048;-89
2021/11/09 05:19:09;;;;;;;12.38;5.80;;;4.00;99.90;;;;;;5036290;28;20041;-88
2021/11/09 05:21:37;;;;;;;5.88;4.80;;;4.00;99.90;;;;;;5053438;28;20052;-89
2021/11/09 05:24:04;;;;;;;9.85;5.95;;;4.00;99.90;;;;;;5035735;28;20059;-88
2021/11/09 05:26:31;;;;;;;13.95;5.47;;;4.00;99.90;;;;;;5036007;28;20055;-88
2021/11/09 05:28:58;;;;;;;11.82;5.63;;;4.00;99.90;;;;;;5035941;28;20045;-88
2021/11/09 05:31:25;;;;;;;12.15;5.65;;;3.90;99.90;;;;;;5053456;28;20055;-88
2021/11/09 05:33:56;;;;;;;9.77;5.00;;;3.80;99.90;;;;;;5053619;28;20452;-88
2021/11/09 05:36:28;;;;;;;13.35;5.10;;;3.80;99.90;;;;;;5035558;28;20072;-88
2021/11/09 05:39:02;;;;;;;10.00;4.93;;;3.70;99.90;;;;;;5036054;28;20087;-88
2021/11/09 05:41:33;;;;;;;8.23;4.43;;;3.70;99.90;;;;;;5035658;28;20045;-88
2021/11/09 05:44:00;;;;;;;9.70;4.82;;;3.50;99.90;;;;;;5035845;28;20053;-89
2021/11/09 05:46:27;;;;;;;6.63;4.38;;;3.50;99.90;;;;;;5035530;28;20144;-88
2021/11/09 05:48:53;;;;;;;6.75;4.32;;;3.40;99.90;;;;;;5053104;28;20045;-88
2021/11/09 05:51:20;;;;;;;7.47;4.32;;;3.40;99.90;;;;;;5053152;28;20075;-88
2021/11/09 05:53:47;;;;;;;7.22;4.07;;;3.30;99.90;;;;;;5035772;28;20087;-89
2021/11/09 05:56:15;;;;;;;8.45;4.35;;;3.10;99.90;;;;;;5035429;28;20055;-88
2021/11/09 05:58:42;;;;;;;7.45;4.55;;;3.00;99.90;;;;;;5053421;28;20041;-88
2021/11/09 06:01:09;;;;;;;7.60;4.28;;;2.90;99.90;;;;;;5052830;28;20051;-87
2021/11/09 06:03:36;;;;;;;7.25;4.65;;;2.80;99.90;;;;;;5035390;28;20067;-88
2021/11/09 06:06:03;;;;;;;11.18;5.05;;;2.70;99.90;;;;;;5035327;28;20053;-88
2021/11/09 06:08:30;;;;;;;9.95;5.38;;;2.60;99.90;;;;;;5035516;28;20053;-88
2021/11/09 06:10:58;;;;;;;6.53;5.25;;;2.50;99.90;;;;;;5035533;28;20084;-88
2021/11/09 06:13:25;;;;;;;11.35;5.10;;;2.40;99.90;;;;;;5052937;28;20497;-88
2021/11/09 06:15:51;;;;;;;10.07;5.45;;;2.40;99.90;;;;;;5035444;28;20405;-88
2021/11/09 06:18:18;;;;;;;5.68;4.40;;;2.30;99.90;;;;;;5053104;28;20044;-87
2021/11/09 06:20:45;;;;;;;8.55;5.10;;;2.30;99.90;;;;;;5035467;28;20497;-88
2021/11/09 06:23:12;;;;;;;7.55;4.57;;;2.30;99.90;;;;;;5035374;28;20486;-88
2021/11/09 06:25:40;;;;;;;8.43;4.15;;;2.30;99.90;;;;;;5035389;28;20124;-88
2021/11/09 06:28:07;;;;;;;7.53;4.50;;;2.20;99.90;;;;;;5052757;28;20071;-88
2021/11/09 06:30:34;;;;;;;19.80;5.20;;;2.20;99.90;;;;;;5035449;28;20110;-88
2021/11/09 06:33:00;;;;;;;6.85;4.60;;;2.20;99.90;;;;;;5053170;28;20055;-88
2021/11/09 06:35:27;;;;;;;7.78;4.60;;;2.10;99.90;;;;;;5035067;28;20571;-87
2021/11/09 06:37:55;;;;;;;14.77;5.60;;;2.10;99.90;;;;;;5035266;28;20051;-88
2021/11/09 06:40:22;;;;;;;24.23;9.98;;;2.10;99.90;;;;;;5052479;28;20049;-87
2021/11/09 06:42:48;;;;;;;25.52;11.40;;;2.10;99.90;;;;;;5052710;28;20123;-88
2021/11/09 06:45:15;;;;;;;25.30;13.27;;;2.00;99.90;;;;;;5052499;28;20067;-87
2021/11/09 06:47:44;;;;;;;24.48;14.40;;;2.00;99.90;;;;;;5035151;28;20045;-87
2021/11/09 06:50:11;;;;;;;18.50;11.07;;;2.00;99.90;;;;;;5035113;28;20049;-87
2021/11/09 06:52:38;;;;;;;21.27;10.73;;;2.00;99.90;;;;;;5052504;28;20051;-88
2021/11/09 06:55:06;;;;;;;23.60;13.35;;;1.90;99.90;;;;;;5038096;28;20127;-88
2021/11/09 06:57:42;;;;;;;20.23;11.65;;;1.90;99.90;;;;;;5040041;28;20507;-87
2021/11/09 07:00:12;;;;;;;16.15;10.38;;;1.90;99.90;;;;;;5038889;28;20075;-87
2021/11/09 07:02:39;;;;;;;18.88;10.73;;;1.90;99.90;;;;;;5039027;28;20040;-88
2021/11/09 07:05:07;;;;;;;19.25;11.48;;;1.90;99.90;;;;;;5056202;28;20055;-88
2021/11/09 07:07:35;;;;;;;31.17;19.55;;;1.90;99.90;;;;;;5039135;28;20055;-87
2021/11/09 07:10:03;;;;;;;18.00;9.95;;;1.80;99.90;;;;;;5039187;28;20049;-87
2021/11/09 07:12:30;;;;;;;14.38;8.55;;;1.80;99.90;;;;;;5056377;28;20394;-88
2021/11/09 07:14:57;;;;;;;15.75;9.68;;;1.90;99.90;;;;;;5038521;28;20053;-88
2021/11/09 07:17:24;;;;;;;18.13;9.85;;;1.90;99.90;;;;;;5056238;28;20049;-88
2021/11/09 07:19:52;;;;;;;17.55;9.73;;;1.90;99.90;;;;;;5038795;28;20099;-88
2021/11/09 07:22:21;;;;;;;25.52;15.55;;;1.90;99.90;;;;;;5056543;28;20041;-88
2021/11/09 07:24:48;;;;;;;15.90;9.85;;;2.00;99.90;;;;;;5056013;28;20549;-87
2021/11/09 07:27:15;;;;;;;17.02;10.90;;;2.00;99.90;;;;;;5037303;28;20053;-87
2021/11/09 07:29:48;;;;;;;15.80;8.85;;;2.00;99.90;;;;;;5038184;28;20071;-87
2021/11/09 07:32:16;;;;;;;;;;;2.00;99.90;;;;;;5055941;28;20049;-87
2021/11/09 07:34:44;;;;;;;14.10;8.27;;;2.00;99.90;;;;;;5038280;28;19920;-88
2021/11/09 07:37:12;;;;;;;16.90;8.75;;;2.00;99.90;;;;;;5038147;28;20499;-87
2021/11/09 07:39:39;;;;;;;13.40;8.45;;;2.00;99.90;;;;;;5038312;28;20053;-88
2021/11/09 07:42:07;;;;;;;14.20;6.88;;;2.00;99.90;;;;;;5038124;28;20087;-88
2021/11/09 07:44:34;;;;;;;15.90;8.00;;;2.00;99.90;;;;;;5037807;28;20059;-88
2021/11/09 07:47:02;;;;;;;19.02;8.52;;;2.00;99.90;;;;;;5037604;28;20561;-87
2021/11/09 07:49:29;;;;;;;12.43;7.80;;;2.00;99.90;;;;;;5055356;28;20053;-88
2021/11/09 07:51:56;;;;;;;12.90;9.32;;;2.00;99.90;;;;;;5038027;28;20331;-88
2021/11/09 07:54:35;;;;;;;30.65;17.02;;;2.10;99.90;;;;;;5037438;28;20063;-87
2021/11/09 07:57:08;;;;;;;20.83;14.85;;;2.00;99.90;;;;;;5037354;28;20045;-88
2021/11/09 07:59:59;;;;;;;;;;;1.90;99.90;;;;;;5038153;28;20051;-88
2021/11/09 08:02:32;;;;;;;22.70;13.40;;;2.00;99.90;;;;;;5055181;28;19925;-87
2021/11/09 08:05:06;;;;;;;25.88;12.15;;;2.10;99.90;;;;;;5054370;28;20056;-87
2021/11/09 08:07:37;;;;;;;21.20;11.18;;;2.10;99.90;;;;;;5037549;28;20512;-88
2021/11/09 08:10:07;;;;;;;20.33;12.35;;;2.00;99.90;;;;;;5037479;28;20067;-87
2021/11/09 08:12:33;;;;;;;24.10;13.45;;;2.00;99.90;;;;;;5037552;28;20136;-87
2021/11/09 08:15:00;;;;;;;21.92;13.95;;;2.10;99.90;;;;;;5054881;28;20589;-87
2021/11/09 08:17:27;;;;;;;27.50;17.60;;;2.20;99.90;;;;;;5054834;28;20049;-87
2021/11/09 08:19:54;;;;;;;26.92;17.52;;;2.20;99.90;;;;;;5037275;28;20059;-87
2021/11/09 08:22:20;;;;;;;23.73;14.05;;;2.10;99.90;;;;;;5054528;28;20057;-87
2021/11/09 08:24:47;;;;;;;36.75;13.75;;;2.10;99.90;;;;;;5054473;28;20053;-88
2021/11/09 08:27:15;;;;;;;33.17;14.98;;;2.30;99.90;;;;;;5037032;28;20114;-87
2021/11/09 08:29:49;;;;;;;36.15;15.27;;;2.30;99.90;;;;;;5037449;28;20139;-87
2021/11/09 08:32:16;;;;;;;40.67;19.10;;;2.40;99.90;;;;;;5036697;28;20076;-88
2021/11/09 08:34:43;;;;;;;25.45;14.68;;;2.30;99.90;;;;;;5042098;28;20404;-88
2021/11/09 08:37:10;;;;;;;28.60;16.20;;;2.30;99.90;;;;;;5044969;28;20041;-87
2021/11/09 08:39:38;;;;;;;37.40;17.27;;;2.40;99.90;;;;;;5045512;28;20049;-87
2021/11/09 08:45:04;;;;;;;41.20;24.23;;;2.60;99.90;;;;;;5074120;28;20048;-87
2021/11/09 08:47:29;;;;;;;1999.90;470.38;;;3.00;99.90;;;;;;5073926;28;20044;-86
2021/11/09 08:49:57;;;;;;;1999.90;787.30;;;3.90;99.90;;;;;;5056853;28;20409;-88
2021/11/09 08:52:26;;;;;;;77.65;36.70;;;4.80;99.90;;;;;;5056467;28;20136;-87
2021/11/09 08:55:25;;;;;;;54.28;28.77;;;5.20;99.90;;;;;;5056382;28;20055;-88
2021/11/09 08:58:12;;;;;;;33.70;13.88;;;6.20;99.90;;;;;;5073674;28;20162;-88
2021/11/09 09:06:07;;;;;;;31.50;9.70;;;8.40;99.90;;;;;;5053384;28;20051;-88
2021/11/09 09:08:34;;;;;;;36.70;9.30;;;8.40;99.90;;;;;;5036292;28;20161;-88
2021/11/09 09:11:07;;;;;;;31.83;5.97;;;8.50;99.90;;;;;;5037057;28;20132;-87
2021/11/09 09:13:34;;;;;;;32.47;15.57;;;9.00;99.90;;;;;;5056892;28;20044;-86
2021/11/09 09:16:01;;;;;;;12.52;3.72;;;10.60;99.90;;;;;;5035432;28;20051;-86
2021/11/09 09:18:28;;;;;;;9.25;3.40;;;11.20;99.90;;;;;;5053463;28;20072;-86
2021/11/09 09:21:07;;;;;;;7.15;2.08;;;11.50;99.90;;;;;;5044627;28;20147;-86
2021/11/09 09:23:36;;;;;;;7.65;2.25;;;12.40;99.90;;;;;;5055894;28;20048;-86
2021/11/09 09:26:50;;;;;;;8.35;2.20;;;14.00;99.90;;;;;;5073383;28;20514;-87
2021/11/09 09:53:59;;;;;;;2.30;1.10;;;22.00;80.10;;;;;;5073473;28;20051;-87
2021/11/09 09:57:03;;;;;;;2.58;1.20;;;21.50;81.20;;;;;;5072874;28;20049;-87
2021/11/09 09:59:11;;;;;;;3.00;1.17;;;22.10;81.00;;;;;;5068038;28;20386;-87
2021/11/09 10:02:13;;;;;;;10.48;1.50;;;21.40;80.10;;;;;;5057915;28;20055;-88
2021/11/09 10:04:44;;;;;;;5.82;1.30;;;21.60;80.10;;;;;;5072892;28;20164;-87
2021/11/09 10:07:13;;;;;;;3.10;1.52;;;21.40;78.90;;;;;;5055358;28;20052;-88
2021/11/09 10:09:45;;;;;;;3.75;1.85;;;20.30;81.30;;;;;;5055800;28;20091;-87
2021/11/09 10:12:19;;;;;;;10.20;2.22;;;19.00;82.70;;;;;;5054893;28;20515;-87
2021/11/09 10:14:51;;;;;;;7.65;2.13;;;17.70;87.20;;;;;;5072974;28;20096;-87
2021/11/09 10:17:22;;;;;;;20.65;3.45;;;16.20;92.10;;;;;;5055192;28;20139;-87
2021/11/09 10:19:49;;;;;;;9.98;2.45;;;14.90;96.00;;;;;;5072273;28;20052;-87
2021/11/09 10:22:19;;;;;;;28.73;3.75;;;13.30;99.90;;;;;;5055165;28;20408;-87
2021/11/09 10:24:59;;;;;;;57.17;5.63;;;12.50;99.90;;;;;;5055101;28;20136;-85
2021/11/09 10:27:29;;;;;;;40.75;4.88;;;12.00;99.90;;;;;;5055827;28;20064;-86
2021/11/09 10:29:56;;;;;;;59.92;6.25;;;11.30;99.90;;;;;;5076871;28;20140;-86
2021/11/09 10:32:28;;;;;;;7.63;1.90;;;10.60;99.90;;;;;;5076891;28;20052;-86
2021/11/09 10:34:58;;;;;;;6.35;2.10;;;10.40;99.90;;;;;;5059267;28;20052;-86
2021/11/09 10:37:33;;;;;;;10.05;2.58;;;10.30;99.90;;;;;;5059501;28;20048;-86
2021/11/09 10:40:25;;;;;;;5.78;1.67;;;10.50;99.90;;;;;;5060536;28;20083;-86
2021/11/09 10:42:55;;;;;;;9.38;3.20;;;10.60;99.90;;;;;;5058864;28;20052;-86
2021/11/09 10:45:24;;;;;;;7.65;2.45;;;11.00;99.90;;;;;;5058692;28;20062;-86
2021/11/09 10:47:57;;;;;;;5.97;2.03;;;10.90;99.90;;;;;;5058987;28;20428;-86
2021/11/09 10:50:34;;;;;;;9.80;2.20;;;11.30;99.90;;;;;;5059262;28;20051;-87
2021/11/09 10:53:08;;;;;;;5.07;2.00;;;13.20;99.90;;;;;;5059235;28;20118;-86
2021/11/09 11:06:18;;;;;;;;;;;14.10;99.90;;;;;;5076367;28;20052;-86
2021/11/09 11:09:11;;;;;;;5.68;1.60;;;14.60;99.80;;;;;;5058796;28;19927;-87
2021/11/09 11:12:09;;;;;;;3.10;1.80;;;13.90;99.90;;;;;;5061169;28;20048;-86
2021/11/09 11:14:43;;;;;;;10.55;3.00;;;13.40;99.90;;;;;;5057985;28;20048;-86
2021/11/09 11:17:17;;;;;;;6.97;1.77;;;13.60;99.90;;;;;;5076000;28;20427;-86
2021/11/09 11:20:02;;;;;;;3.92;2.60;;;16.70;99.90;;;;;;5075928;28;20106;-86
2021/11/09 11:22:30;;;;;;;3.70;1.55;;;18.00;91.80;;;;;;5036288;28;20482;-86
2021/11/09 11:24:59;;;;;;;1.67;1.23;;;18.90;85.60;;;;;;5034830;28;20413;-86
2021/11/09 11:27:30;;;;;;;1.02;0.70;;;18.30;78.50;;;;;;5035087;28;20132;-85
2021/11/09 11:30:01;;;;;;;0.85;0.85;;;17.30;78.90;;;;;;5035018;28;20056;-86
2021/11/09 11:32:29;;;;;;;33.72;23.38;;;16.80;81.50;;;;;;5034738;28;20049;-86
2021/11/09 11:34:56;;;;;;;9.98;7.45;;;15.60;84.60;;;;;;5034711;28;20080;-86
2021/11/09 11:37:23;;;;;;;1.60;0.70;;;15.10;85.50;;;;;;5034677;28;20049;-85
2021/11/09 11:39:54;;;;;;;2.55;0.70;;;14.50;89.10;;;;;;5035008;28;20077;-85
2021/11/09 11:42:21;;;;;;;2.78;0.80;;;13.70;90.80;;;;;;5034781;28;20054;-87
2021/11/09 11:44:57;;;;;;;0.93;0.75;;;12.90;92.40;;;;;;5034675;28;20133;-87
2021/11/09 11:47:24;;;;;;;0.98;0.28;;;12.90;94.60;;;;;;5034591;28;20071;-85
2021/11/09 11:49:54;;;;;;;1.85;0.55;;;14.80;94.80;;;;;;5034574;28;20573;-85
2021/11/09 11:52:31;;;;;;;4.03;0.70;;;16.30;88.50;;;;;;5034194;28;20053;-86
2021/11/09 11:55:18;;;;;;;2.85;0.30;;;17.80;83.30;;;;;;5035424;28;20052;-86
2021/11/09 11:57:48;;;;;;;1.48;0.40;;;17.60;82.10;;;;;;5034569;28;20056;-86
2021/11/09 12:00:28;;;;;;;3.80;0.88;;;19.30;77.80;;;;;;5034447;28;20084;-86
2021/11/09 12:02:56;;;;;;;0.90;0.32;;;19.50;75.50;;;;;;5030453;28;20081;-86
2021/11/09 12:05:37;;;;;;;4.15;0.70;;;19.60;72.50;;;;;;5034131;28;20132;-86
2021/11/09 12:08:05;;;;;;;3.90;1.10;;;20.30;76.80;;;;;;5034976;28;20553;-85
2021/11/09 12:10:43;;;;;;;1.92;0.75;;;20.50;67.60;;;;;;5033800;28;20057;-86
2021/11/09 12:13:12;;;;;;;2.83;0.57;;;19.20;68.40;;;;;;5034941;28;20417;-85
2021/11/09 12:16:03;;;;;;;4.82;0.70;;;17.50;73.50;;;;;;5033884;28;20054;-86
2021/11/09 12:18:37;;;;;;;3.97;1.05;;;16.80;76.40;;;;;;5034307;28;20103;-86
2021/11/09 12:21:06;;;;;;;1.05;0.50;;;17.10;76.20;;;;;;5044146;28;20056;-86
2021/11/09 12:23:36;;;;;;;2.30;0.95;;;17.50;72.70;;;;;;5054895;28;20053;-86
2021/11/09 12:26:58;;;;;;;3.85;0.60;;;17.60;75.60;;;;;;5053872;28;20072;-86
2021/11/09 12:29:46;;;;;;;5.13;1.08;;;16.90;78.80;;;;;;5054760;28;20045;-86
2021/11/09 12:32:37;;;;;;;3.13;1.00;;;16.10;75.90;;;;;;5053432;28;20059;-86
2021/11/09 12:35:17;;;;;;;7.75;1.63;;;15.40;78.30;;;;;;5053597;28;20136;-86
2021/11/09 12:38:02;;;;;;;4.78;0.90;;;15.60;79.80;;;;;;5054595;28;20132;-86
2021/11/09 12:40:38;;;;;;;17.38;1.85;;;15.80;81.20;;;;;;5054411;28;20395;-86
2021/11/09 12:43:15;;;;;;;3.42;0.88;;;16.30;81.10;;;;;;5053247;28;20060;-86
2021/11/09 12:45:43;;;;;;;2.35;1.00;;;16.50;78.40;;;;;;5053216;28;20049;-86
2021/11/09 12:48:14;;;;;;;3.03;0.90;;;17.50;76.70;;;;;;5053374;28;20053;-86
2021/11/09 12:50:51;;;;;;;2.03;0.70;;;18.00;78.20;;;;;;5054489;28;20493;-86
2021/11/09 12:53:21;;;;;;;4.40;1.02;;;17.70;77.40;;;;;;5053640;28;20047;-86
2021/11/09 12:56:00;;;;;;;3.83;0.93;;;16.50;79.60;;;;;;5053415;28;20056;-86
2021/11/09 12:58:29;;;;;;;1.85;0.82;;;16.60;76.70;;;;;;5052941;28;20045;-87
2021/11/09 13:01:19;;;;;;;5.00;1.02;;;16.50;80.00;;;;;;5052897;28;20087;-86
2021/11/09 13:04:15;;;;;;;3.28;1.13;;;16.30;83.00;;;;;;5054255;28;20558;-87
2021/11/09 13:07:07;;;;;;;4.82;0.93;;;16.10;84.60;;;;;;5052169;28;20053;-86
2021/11/09 13:09:46;;;;;;;5.65;1.00;;;15.80;84.10;;;;;;5053757;28;20049;-86
2021/11/09 13:12:23;;;;;;;6.55;2.15;;;15.30;90.40;;;;;;5052694;28;20079;-87
2021/11/09 13:14:55;;;;;;;3.38;1.10;;;15.50;82.10;;;;;;5052692;28;20076;-86
2021/11/09 13:17:36;;;;;;;1.70;0.70;;;15.40;82.50;;;;;;5053027;28;20129;-87
2021/11/09 13:20:07;;;;;;;7.97;1.20;;;15.80;83.50;;;;;;5055823;28;20045;-87
2021/11/09 13:22:34;;;;;;;3.42;0.85;;;15.90;85.70;;;;;;5056723;28;20424;-87
2021/11/09 13:25:06;;;;;;;3.58;1.10;;;15.70;77.80;;;;;;5056493;28;20048;-87
2021/11/09 13:27:47;;;;;;;3.00;1.10;;;15.70;76.50;;;;;;5073325;28;20048;-87
2021/11/09 13:30:24;;;;;;;1.35;0.63;;;16.10;75.40;;;;;;5054798;28;20436;-87
2021/11/09 13:32:53;;;;;;;5.85;1.10;;;15.80;76.40;;;;;;5074329;28;20473;-87
2021/11/09 13:35:24;;;;;;;12.70;1.25;;;15.50;77.90;;;;;;5056476;28;20079;-87
2021/11/09 13:38:18;;;;;;;7.82;1.45;;;15.10;78.30;;;;;;5056653;28;20044;-87
2021/11/09 13:40:57;;;;;;;5.97;1.20;;;16.00;79.80;;;;;;5056685;28;20045;-87
2021/11/09 13:43:36;;;;;;;6.28;1.02;;;17.30;75.50;;;;;;5056120;28;20059;-87
2021/11/09 13:46:09;;;;;;;17.10;4.18;;;16.50;77.00;;;;;;5073395;28;20052;-87
2021/11/09 13:48:39;;;;;;;5.03;1.38;;;16.50;78.60;;;;;;5056019;28;20048;-87
2021/11/09 13:51:11;;;;;;;2.58;0.90;;;16.40;75.10;;;;;;5056066;28;20171;-86
2021/11/09 13:53:45;;;;;;;11.77;1.88;;;16.30;73.80;;;;;;5073895;28;20048;-87
2021/11/09 13:56:15;;;;;;;3.35;1.73;;;15.70;77.70;;;;;;5055923;28;20049;-87
2021/11/09 13:58:56;;;;;;;20.60;4.10;;;15.00;78.80;;;;;;5073764;28;20044;-86
2021/11/09 14:01:52;;;;;;;7.97;2.13;;;15.30;83.10;;;;;;5073464;28;20136;-87
2021/11/09 14:04:57;;;;;;;18.67;2.67;;;16.30;76.70;;;;;;5073557;28;20056;-86
2021/11/09 14:15:47;;;;;;;17.25;2.58;;;14.40;81.00;;;;;;5073463;28;20052;-86
2021/11/09 14:18:17;;;;;;;18.80;3.42;;;13.10;87.70;;;;;;5055884;28;20150;-87
2021/11/09 14:21:05;;;;;;;5.07;1.17;;;12.20;92.40;;;;;;5073303;28;20131;-86
2021/11/09 14:23:35;;;;;;;21.30;3.08;;;11.50;92.90;;;;;;5055573;28;20080;-86
2021/11/09 14:26:25;;;;;;;61.05;7.75;;;11.10;99.90;;;;;;5055482;28;20048;-85
2021/11/09 14:28:57;;;;;;;35.83;5.55;;;10.60;99.90;;;;;;5055802;28;20064;-88
2021/11/09 14:31:37;;;;;;;69.35;9.48;;;10.20;99.90;;;;;;5055658;28;20122;-88
2021/11/09 14:34:12;;;;;;;47.92;7.60;;;9.80;99.90;;;;;;5055948;28;20048;-88
2021/11/09 14:36:40;;;;;;;43.13;5.10;;;9.60;99.90;;;;;;5055561;28;20048;-88
2021/11/09 14:39:08;;;;;;;47.85;4.82;;;9.30;99.90;;;;;;5055448;28;20056;-88
2021/11/09 14:42:06;;;;;;;37.60;5.07;;;9.00;99.90;;;;;;5073065;28;20091;-88
2021/11/09 14:48:16;;;;;;;33.45;4.93;;;8.40;99.90;;;;;;5073365;28;20051;-88
2021/11/09 14:53:44;;;;;;;39.40;4.78;;;7.90;99.90;;;;;;5072929;28;20052;-88
2021/11/09 14:56:19;;;;;;;32.97;4.72;;;7.80;99.90;;;;;;5055411;28;20128;-88
2021/11/09 14:58:53;;;;;;;24.02;3.35;;;7.60;99.90;;;;;;5055418;28;20071;-88
2021/11/09 15:01:44;;;;;;;40.15;4.35;;;7.50;99.90;;;;;;5055313;28;20064;-88
2021/11/09 15:04:39;;;;;;;23.50;3.85;;;7.30;99.90;;;;;;5055515;28;20053;-88
2021/11/09 15:07:28;;;;;;;25.10;3.15;;;7.30;99.90;;;;;;5055357;28;20048;-88
2021/11/09 15:10:21;;;;;;;21.85;4.05;;;7.20;99.90;;;;;;5055382;28;20041;-87
2021/11/09 15:12:57;;;;;;;16.23;3.92;;;7.00;99.90;;;;;;5055274;28;20048;-88
2021/11/09 15:31:53;;;;;;;13.63;6.65;;;6.00;99.90;;;;;;5076153;28;20048;-88
2021/11/09 15:34:34;;;;;;;12.23;7.65;;;5.90;99.90;;;;;;5058375;28;20109;-88
2021/11/09 15:39:44;;;;;;;11.82;5.93;;;5.70;99.90;;;;;;5076271;28;20146;-88
2021/11/09 15:42:13;;;;;;;14.13;5.40;;;5.70;99.90;;;;;;5058322;28;20067;-88
2021/11/09 15:44:40;;;;;;;12.98;5.55;;;5.50;99.90;;;;;;5058351;28;20460;-88
2021/11/09 15:47:07;;;;;;;20.00;7.45;;;5.40;99.90;;;;;;5058232;28;20061;-88
2021/11/09 15:49:34;;;;;;;19.73;7.57;;;5.30;99.90;;;;;;5058066;28;20048;-88
2021/11/09 15:52:02;;;;;;;14.95;7.72;;;5.20;99.90;;;;;;5058355;28;20044;-88